Time;durP1;ratioP1;P1;durP2;ratioP2;P2;SDS_P1;SDS_P2;PMS_P1;PMS_P2;Temp;Humidity;BMP_temperature;BMP_pressure;BME280_temperature;BME280_humidity;BME280_pressure;Samples;Min_cycle;Max_cycle;Signal;HPM_P1;HPM_P2
2023/04/27 00:01:23;;;;;;;10.30;6.35;;;28.00;91.80;;;;;;1866159;75;21645;-78
2023/04/27 00:03:55;;;;;;;11.15;7.37;;;28.00;91.80;;;;;;1899393;75;21636;-79
2023/04/27 00:06:27;;;;;;;12.35;7.15;;;28.10;91.80;;;;;;1899006;74;22247;-79
2023/04/27 00:08:58;;;;;;;12.15;7.28;;;28.10;91.80;;;;;;1836162;77;21170;-79
2023/04/27 00:11:29;;;;;;;14.53;7.78;;;28.10;91.80;;;;;;1909414;73;21211;-76
2023/04/27 00:14:01;;;;;;;13.50;7.92;;;28.10;91.90;;;;;;1913269;73;21631;-83
2023/04/27 00:16:33;;;;;;;13.50;7.83;;;28.10;91.90;;;;;;1914946;73;21762;-83
2023/04/27 00:19:04;;;;;;;20.40;11.33;;;28.20;92.00;;;;;;1920472;73;21134;-83
2023/04/27 00:21:35;;;;;;;11.60;8.13;;;28.20;92.00;;;;;;1902546;74;21689;-84
2023/04/27 00:24:08;;;;;;;13.18;7.70;;;28.20;91.80;;;;;;1905933;74;21067;-81
2023/04/27 00:26:40;;;;;;;11.68;8.20;;;28.20;91.90;;;;;;1897212;74;21052;-81
2023/04/27 00:29:11;;;;;;;12.98;7.67;;;28.20;91.80;;;;;;1910968;75;21111;-83
2023/04/27 00:31:43;;;;;;;15.88;8.60;;;28.30;91.80;;;;;;1904514;73;21101;-86
2023/04/27 00:34:14;;;;;;;16.57;8.18;;;28.30;92.10;;;;;;1914853;73;21209;-83
2023/04/27 00:36:45;;;;;;;12.93;8.50;;;28.30;92.10;;;;;;1930432;73;21072;-83
2023/04/27 00:39:16;;;;;;;33.60;9.18;;;28.30;92.10;;;;;;1907813;73;21150;-83
2023/04/27 00:41:47;;;;;;;16.02;10.40;;;28.30;92.10;;;;;;1901879;74;21185;-83
2023/04/27 00:44:26;;;;;;;17.55;11.05;;;28.30;92.10;;;;;;1900387;74;21098;-83
2023/04/27 00:46:58;;;;;;;17.32;8.65;;;28.30;92.00;;;;;;1907122;74;21123;-83
2023/04/27 00:49:29;;;;;;;13.70;9.03;;;28.40;91.80;;;;;;1912142;74;21142;-82
2023/04/27 00:52:00;;;;;;;11.50;7.45;;;28.40;91.70;;;;;;1901812;75;21068;-84
2023/04/27 00:54:33;;;;;;;14.25;7.70;;;28.40;91.70;;;;;;1909513;74;21633;-83
2023/04/27 00:57:05;;;;;;;9.70;6.67;;;28.50;91.60;;;;;;1921089;74;21799;-84
2023/04/27 00:59:36;;;;;;;10.00;7.47;;;28.50;91.50;;;;;;1904992;74;21582;-84
2023/04/27 01:02:07;;;;;;;11.45;6.22;;;28.60;91.50;;;;;;1902722;74;21070;-80
2023/04/27 01:04:38;;;;;;;10.65;6.80;;;28.60;91.00;;;;;;1907824;74;21162;-77
2023/04/27 01:07:09;;;;;;;9.40;7.00;;;28.80;90.80;;;;;;1896742;75;21177;-82
2023/04/27 01:09:41;;;;;;;11.83;6.62;;;28.80;90.60;;;;;;1899004;75;21866;-81
2023/04/27 01:12:12;;;;;;;11.95;7.55;;;28.80;90.50;;;;;;1902278;74;21573;-79
2023/04/27 01:14:43;;;;;;;12.37;7.15;;;28.80;90.40;;;;;;1901724;74;22325;-78
2023/04/27 01:17:15;;;;;;;10.15;7.28;;;28.90;90.40;;;;;;1901179;74;21111;-78
2023/04/27 01:19:46;;;;;;;10.72;6.80;;;28.90;90.10;;;;;;1907821;73;22350;-76
2023/04/27 01:22:17;;;;;;;75.35;14.33;;;29.00;90.20;;;;;;1911882;73;21125;-75
2023/04/27 01:24:52;;;;;;;13.68;9.05;;;29.00;90.90;;;;;;1908042;73;21887;-78
2023/04/27 01:27:22;;;;;;;12.80;8.48;;;29.10;90.60;;;;;;1906595;73;21130;-77
2023/04/27 01:29:53;;;;;;;14.75;9.10;;;29.10;90.20;;;;;;1913920;75;21173;-77
2023/04/27 01:32:24;;;;;;;14.07;7.42;;;29.20;90.10;;;;;;1913393;73;21121;-76
2023/04/27 01:34:55;;;;;;;12.85;8.98;;;29.20;90.10;;;;;;1915295;73;21586;-75
2023/04/27 01:37:30;;;;;;;10.75;8.15;;;29.20;90.00;;;;;;1905232;75;21125;-76
2023/04/27 01:40:02;;;;;;;12.73;7.65;;;29.20;90.00;;;;;;1908250;75;21812;-74
2023/04/27 01:42:33;;;;;;;10.18;7.55;;;29.30;89.50;;;;;;1910652;73;21209;-75
2023/04/27 01:45:05;;;;;;;13.95;7.50;;;29.30;89.70;;;;;;1910565;73;21631;-77
2023/04/27 01:47:36;;;;;;;9.55;7.10;;;29.30;89.50;;;;;;1904778;73;21107;-78
2023/04/27 01:50:07;;;;;;;11.25;7.25;;;29.40;89.10;;;;;;1916894;75;21150;-83
2023/04/27 01:52:39;;;;;;;13.08;6.95;;;29.40;88.90;;;;;;1912534;73;21271;-73
2023/04/27 01:55:10;;;;;;;11.80;7.95;;;29.60;88.10;;;;;;1914383;73;21097;-77
2023/04/27 01:57:41;;;;;;;10.13;6.97;;;29.60;87.90;;;;;;1913633;73;21099;-78
2023/04/27 02:00:13;;;;;;;11.35;7.35;;;29.60;88.00;;;;;;1915491;75;21171;-77
2023/04/27 02:02:44;;;;;;;9.38;6.53;;;29.70;88.10;;;;;;1914794;73;21118;-78
2023/04/27 02:05:17;;;;;;;9.95;6.87;;;29.70;88.40;;;;;;1914816;73;21669;-79
2023/04/27 02:07:48;;;;;;;11.30;7.17;;;29.80;88.20;;;;;;1917362;74;21095;-79
2023/04/27 02:10:22;;;;;;;12.60;7.28;;;29.80;87.60;;;;;;1911098;75;21122;-78
2023/04/27 02:12:53;;;;;;;11.50;7.15;;;29.80;87.40;;;;;;1906068;73;21138;-77
2023/04/27 02:15:28;;;;;;;10.58;7.72;;;29.80;86.70;;;;;;1907528;75;21114;-76
2023/04/27 02:17:57;;;;;;;10.75;7.37;;;29.80;86.70;;;;;;1903359;74;21163;-77
2023/04/27 02:20:33;;;;;;;9.55;7.30;;;29.80;86.80;;;;;;1910148;74;21142;-77
2023/04/27 02:23:05;;;;;;;10.13;6.95;;;29.80;87.10;;;;;;1900723;74;21225;-77
2023/04/27 02:25:45;;;;;;;9.90;6.85;;;29.80;87.40;;;;;;1892725;74;21064;-79
2023/04/27 02:28:12;;;;;;;13.28;7.45;;;29.70;87.20;;;;;;1832828;78;21131;-73
2023/04/27 02:30:44;;;;;;;9.85;7.08;;;29.70;87.50;;;;;;1849031;77;21138;-79
2023/04/27 02:33:17;;;;;;;8.63;6.50;;;29.70;87.10;;;;;;1845121;76;21271;-77
2023/04/27 02:35:49;;;;;;;7.47;6.47;;;29.70;86.80;;;;;;1847246;76;21146;-77
2023/04/27 02:38:23;;;;;;;9.30;6.87;;;29.70;87.00;;;;;;1851833;76;21108;-75
2023/04/27 02:40:55;;;;;;;17.23;7.25;;;29.80;87.10;;;;;;1848651;76;21644;-75
2023/04/27 02:43:28;;;;;;;10.55;7.42;;;29.90;88.40;;;;;;1851072;77;21120;-74
2023/04/27 02:46:04;;;;;;;7.42;6.60;;;30.10;87.20;;;;;;1852909;77;21233;-75
2023/04/27 02:48:35;;;;;;;10.25;7.70;;;30.20;86.50;;;;;;1846343;76;21108;-74
2023/04/27 02:51:07;;;;;;;9.23;7.33;;;30.40;85.20;;;;;;1843052;76;21761;-74
2023/04/27 02:53:38;;;;;;;10.60;7.55;;;30.50;85.00;;;;;;1834306;77;21151;-74
2023/04/27 02:56:09;;;;;;;12.63;7.20;;;30.60;84.00;;;;;;1852845;76;21554;-73
2023/04/27 02:58:40;;;;;;;12.55;7.87;;;30.70;84.00;;;;;;1893249;75;21667;-73
2023/04/27 03:01:11;;;;;;;9.63;7.17;;;30.70;84.80;;;;;;1899248;74;21118;-75
2023/04/27 03:03:43;;;;;;;10.15;7.28;;;30.70;84.90;;;;;;1899848;74;21138;-74
2023/04/27 03:06:15;;;;;;;9.85;7.50;;;30.70;84.90;;;;;;1905167;74;21096;-74
2023/04/27 03:08:46;;;;;;;11.53;7.15;;;30.80;84.30;;;;;;1907463;74;21166;-75
2023/04/27 03:11:18;;;;;;;12.93;8.23;;;30.90;84.20;;;;;;1901666;74;21218;-74
2023/04/27 03:13:49;;;;;;;11.35;8.05;;;31.10;84.60;;;;;;1897107;74;21744;-75
2023/04/27 03:16:20;;;;;;;10.80;7.78;;;31.30;84.10;;;;;;1900636;74;21178;-75
2023/04/27 03:18:52;;;;;;;10.08;8.08;;;31.40;83.70;;;;;;1834792;77;21242;-75
2023/04/27 03:21:26;;;;;;;10.95;8.15;;;31.50;83.20;;;;;;1894413;74;21170;-74
2023/04/27 03:23:58;;;;;;;10.60;7.10;;;31.60;83.80;;;;;;1897066;74;21264;-75
2023/04/27 03:29:31;;;;;;;13.18;8.30;;;31.70;83.60;;;;;;1742959;81;21214;-76
2023/04/27 03:32:03;;;;;;;10.32;8.23;;;31.90;83.70;;;;;;1759194;81;21106;-75
2023/04/27 03:34:35;;;;;;;14.40;8.05;;;32.00;82.00;;;;;;1703340;83;21645;-75
2023/04/27 03:37:07;;;;;;;10.30;7.65;;;32.20;80.90;;;;;;1741653;81;21161;-75
2023/04/27 03:39:38;;;;;;;12.15;7.42;;;32.30;80.10;;;;;;1734258;81;21284;-76
2023/04/27 03:42:09;;;;;;;9.45;7.20;;;32.40;80.40;;;;;;1760188;81;21205;-73
2023/04/27 03:44:41;;;;;;;11.55;8.03;;;32.50;79.90;;;;;;1739086;81;21181;-73
2023/04/27 03:47:15;;;;;;;11.60;7.25;;;32.50;80.00;;;;;;1725991;81;21637;-76
2023/04/27 03:49:46;;;;;;;10.23;7.12;;;32.50;80.40;;;;;;1734564;81;21170;-76
2023/04/27 03:52:18;;;;;;;11.70;8.10;;;32.50;79.90;;;;;;1711401;83;21220;-74
2023/04/27 03:54:54;;;;;;;10.50;7.50;;;32.60;79.50;;;;;;1702965;82;21695;-75
2023/04/27 03:57:26;;;;;;;9.23;7.10;;;32.60;79.90;;;;;;1703261;83;21638;-75
2023/04/27 03:59:58;;;;;;;13.15;8.45;;;32.60;79.30;;;;;;1705888;83;21702;-75
2023/04/27 04:02:32;;;;;;;10.50;7.37;;;32.60;79.30;;;;;;1737009;81;21722;-77
2023/04/27 04:05:04;;;;;;;10.68;7.33;;;32.60;79.50;;;;;;1740927;81;21786;-75
2023/04/27 04:07:35;;;;;;;9.00;6.78;;;32.70;79.70;;;;;;1733482;81;21187;-75
2023/04/27 04:10:07;;;;;;;13.70;8.18;;;32.70;78.90;;;;;;1735623;81;21090;-76
2023/04/27 04:12:38;;;;;;;12.82;7.35;;;32.80;78.70;;;;;;1704045;83;21201;-76
2023/04/27 04:15:12;;;;;;;9.15;6.92;;;32.80;79.30;;;;;;1732201;81;21183;-76
2023/04/27 04:17:44;;;;;;;10.30;7.00;;;32.90;79.10;;;;;;1741050;81;21196;-75
2023/04/27 04:20:19;;;;;;;9.48;7.05;;;33.00;77.90;;;;;;1738849;81;21154;-78
2023/04/27 04:22:56;;;;;;;9.90;7.40;;;33.10;77.30;;;;;;1737417;81;21266;-75
2023/04/27 04:25:27;;;;;;;12.50;7.53;;;33.20;77.50;;;;;;1726133;81;21138;-77
2023/04/27 04:27:58;;;;;;;11.18;8.43;;;33.20;77.30;;;;;;1739282;81;21660;-74
2023/04/27 04:30:29;;;;;;;9.00;7.55;;;33.20;76.70;;;;;;1729636;82;21662;-75
2023/04/27 04:33:00;;;;;;;9.43;7.80;;;33.20;76.60;;;;;;1735916;81;21228;-75
2023/04/27 04:35:37;;;;;;;11.93;7.15;;;33.20;77.90;;;;;;1739977;81;21280;-76
2023/04/27 04:38:04;;;;;;;9.80;8.08;;;33.30;77.20;;;;;;1733429;81;21165;-74
2023/04/27 04:40:36;;;;;;;9.95;8.00;;;33.30;76.90;;;;;;1735660;82;21130;-75
2023/04/27 04:43:07;;;;;;;15.65;8.08;;;33.40;76.20;;;;;;1726429;81;21186;-76
2023/04/27 04:45:38;;;;;;;11.03;7.70;;;33.40;76.20;;;;;;1734703;81;21685;-76
2023/04/27 04:48:09;;;;;;;10.43;7.12;;;33.40;76.30;;;;;;1730768;81;21882;-75
2023/04/27 04:50:40;;;;;;;9.98;6.85;;;33.50;75.50;;;;;;1741152;81;21161;-74
2023/04/27 04:53:12;;;;;;;10.60;7.45;;;33.50;75.90;;;;;;1732044;81;21182;-75
2023/04/27 04:55:43;;;;;;;8.68;6.97;;;33.60;74.10;;;;;;1730896;82;21725;-74
2023/04/27 04:58:14;;;;;;;10.03;6.83;;;33.70;74.60;;;;;;1730788;81;21170;-75
2023/04/27 05:00:45;;;;;;;8.98;7.53;;;33.70;73.90;;;;;;1733878;81;21647;-77
2023/04/27 05:03:16;;;;;;;10.95;7.10;;;33.80;73.60;;;;;;1734202;81;21739;-75
2023/04/27 05:05:49;;;;;;;10.58;7.67;;;33.80;74.10;;;;;;1737744;81;21170;-77
2023/04/27 05:08:20;;;;;;;8.60;6.47;;;33.90;72.70;;;;;;1732371;81;21166;-75
2023/04/27 05:10:52;;;;;;;11.45;7.80;;;34.00;72.60;;;;;;1717720;83;21159;-73
2023/04/27 05:13:26;;;;;;;8.53;7.17;;;34.00;71.60;;;;;;1736524;81;21123;-75
2023/04/27 05:15:57;;;;;;;11.20;7.25;;;34.10;71.40;;;;;;1737183;81;21166;-74
2023/04/27 05:18:28;;;;;;;11.22;7.83;;;34.10;71.40;;;;;;1729907;82;21800;-75
2023/04/27 05:20:59;;;;;;;11.35;7.80;;;34.20;70.40;;;;;;1737733;82;21176;-73
2023/04/27 05:23:30;;;;;;;11.20;7.58;;;34.20;70.30;;;;;;1712935;83;21166;-73
2023/04/27 05:26:01;;;;;;;22.58;8.10;;;34.20;70.60;;;;;;1717227;82;21267;-74
2023/04/27 05:28:32;;;;;;;9.33;7.55;;;34.20;70.80;;;;;;1717581;82;21792;-74
2023/04/27 05:31:04;;;;;;;10.13;7.40;;;34.20;72.10;;;;;;1718241;82;21186;-74
2023/04/27 05:33:35;;;;;;;12.80;8.73;;;34.30;72.80;;;;;;1714654;82;21205;-73
2023/04/27 05:36:10;;;;;;;13.88;8.78;;;34.20;71.70;;;;;;1716031;82;21124;-74
2023/04/27 05:38:42;;;;;;;12.68;10.08;;;34.20;71.60;;;;;;1714721;82;21190;-74
2023/04/27 05:41:13;;;;;;;10.95;9.48;;;34.20;71.10;;;;;;1719010;82;21299;-75
2023/04/27 05:43:45;;;;;;;15.15;10.38;;;34.20;71.40;;;;;;1718463;82;21163;-74
2023/04/27 05:46:16;;;;;;;12.85;10.45;;;34.20;70.70;;;;;;1740859;82;21819;-76
2023/04/27 05:48:48;;;;;;;13.35;10.98;;;34.30;70.50;;;;;;1746580;81;21118;-75
2023/04/27 05:51:19;;;;;;;15.43;10.90;;;34.40;69.40;;;;;;1742775;81;21254;-75
2023/04/27 05:53:54;;;;;;;14.50;10.20;;;34.40;70.40;;;;;;1744222;81;21169;-74
2023/04/27 05:56:24;;;;;;;13.20;10.20;;;34.50;69.70;;;;;;1742332;81;21173;-73
2023/04/27 05:58:55;;;;;;;10.95;8.90;;;34.40;69.40;;;;;;1727835;82;21182;-76
2023/04/27 06:01:26;;;;;;;13.10;10.75;;;34.40;70.20;;;;;;1738036;82;21221;-76
2023/04/27 06:04:00;;;;;;;9.98;8.98;;;34.40;70.20;;;;;;1754270;81;21559;-74
2023/04/27 06:06:32;;;;;;;13.30;9.58;;;34.40;70.60;;;;;;1737812;82;21314;-75
2023/04/27 06:09:03;;;;;;;11.55;9.38;;;34.40;70.20;;;;;;1727223;81;21175;-74
2023/04/27 06:11:34;;;;;;;13.20;9.83;;;34.40;69.90;;;;;;1740220;82;21221;-74
2023/04/27 06:14:05;;;;;;;15.05;12.28;;;34.40;70.40;;;;;;1717321;83;21190;-76
2023/04/27 06:16:36;;;;;;;12.35;9.83;;;34.40;70.30;;;;;;1711402;83;21173;-76
2023/04/27 06:19:08;;;;;;;12.90;9.78;;;34.40;70.50;;;;;;1711207;83;21174;-73
2023/04/27 06:21:41;;;;;;;15.93;12.30;;;34.40;70.50;;;;;;1721193;83;21197;-76
2023/04/27 06:24:12;;;;;;;15.68;12.40;;;34.40;70.50;;;;;;1742433;81;21157;-73
2023/04/27 06:26:43;;;;;;;17.52;11.90;;;34.50;70.00;;;;;;1733648;82;21292;-73
2023/04/27 06:29:15;;;;;;;12.63;10.90;;;34.50;69.10;;;;;;1737748;81;21934;-75
2023/04/27 06:31:46;;;;;;;16.77;12.15;;;34.50;69.50;;;;;;1716512;82;21683;-75
2023/04/27 06:34:17;;;;;;;14.47;10.48;;;34.50;68.80;;;;;;1721385;83;21236;-75
2023/04/27 06:36:49;;;;;;;11.75;10.28;;;34.50;70.00;;;;;;1716628;83;21240;-75
2023/04/27 06:39:20;;;;;;;14.75;11.15;;;34.50;70.20;;;;;;1726298;82;21283;-75
2023/04/27 06:41:51;;;;;;;14.40;12.75;;;34.40;69.70;;;;;;1710799;83;21143;-73
2023/04/27 06:44:22;;;;;;;17.40;14.60;;;34.40;70.00;;;;;;1719801;83;21727;-75
2023/04/27 06:46:54;;;;;;;20.27;14.70;;;34.30;69.70;;;;;;1706778;83;21119;-76
2023/04/27 06:49:25;;;;;;;16.87;14.25;;;34.30;69.60;;;;;;1720016;83;21189;-75
2023/04/27 06:51:57;;;;;;;14.50;13.08;;;34.10;69.60;;;;;;1713691;83;21923;-74
2023/04/27 06:54:28;;;;;;;19.73;14.03;;;34.00;70.30;;;;;;1714232;83;21225;-74
2023/04/27 06:56:59;;;;;;;22.80;14.73;;;33.90;69.90;;;;;;1719702;83;21606;-74
2023/04/27 06:59:30;;;;;;;14.63;12.95;;;33.90;69.60;;;;;;1713356;83;22469;-76
2023/04/27 07:02:02;;;;;;;17.30;13.45;;;33.90;71.10;;;;;;1716132;82;21130;-75
2023/04/27 07:04:33;;;;;;;17.20;12.98;;;33.90;70.10;;;;;;1712413;83;21138;-75
2023/04/27 07:07:08;;;;;;;15.38;11.93;;;33.90;70.40;;;;;;1723983;83;21193;-76
2023/04/27 07:09:39;;;;;;;17.12;12.82;;;33.90;70.30;;;;;;1703174;83;21213;-74
2023/04/27 07:12:11;;;;;;;17.67;13.78;;;34.00;70.80;;;;;;1710071;83;21607;-73
2023/04/27 07:14:42;;;;;;;17.35;13.62;;;34.00;70.20;;;;;;1715811;82;21244;-74
2023/04/27 07:17:14;;;;;;;15.08;13.03;;;34.00;70.40;;;;;;1710555;82;21683;-72
2023/04/27 07:19:45;;;;;;;17.48;12.58;;;34.00;70.10;;;;;;1723708;82;21239;-72
2023/04/27 07:22:16;;;;;;;16.95;14.18;;;34.00;69.80;;;;;;1691272;83;21130;-72
2023/04/27 07:24:47;;;;;;;15.32;13.53;;;34.00;69.30;;;;;;1714089;82;21174;-72
2023/04/27 07:27:19;;;;;;;14.85;12.95;;;34.10;69.40;;;;;;1719309;83;21230;-74
2023/04/27 07:29:51;;;;;;;16.15;14.15;;;34.10;69.20;;;;;;1718637;83;21956;-75
2023/04/27 07:32:22;;;;;;;16.50;13.30;;;34.10;69.00;;;;;;1720010;82;21146;-75
2023/04/27 07:34:54;;;;;;;15.15;12.65;;;34.10;69.60;;;;;;1713441;83;21150;-74
2023/04/27 07:37:26;;;;;;;17.07;15.23;;;34.10;69.70;;;;;;1716493;82;21190;-75
2023/04/27 07:39:58;;;;;;;18.50;14.13;;;34.00;68.80;;;;;;1713855;82;21276;-75
2023/04/27 07:42:30;;;;;;;15.72;14.03;;;33.90;69.70;;;;;;1706732;83;21119;-76
2023/04/27 07:45:01;;;;;;;16.57;13.22;;;33.90;70.00;;;;;;1715012;83;21617;-75
2023/04/27 07:47:37;;;;;;;19.70;14.80;;;33.80;70.10;;;;;;1720790;82;21193;-75
2023/04/27 07:50:09;;;;;;;18.20;14.63;;;33.80;69.30;;;;;;1714513;83;21181;-75
2023/04/27 07:52:40;;;;;;;16.37;14.40;;;33.80;71.10;;;;;;1717677;82;21254;-73
2023/04/27 07:55:11;;;;;;;16.45;14.65;;;33.80;70.20;;;;;;1715935;83;21661;-76
2023/04/27 07:57:43;;;;;;;17.37;15.40;;;33.70;70.50;;;;;;1715300;83;21216;-75
2023/04/27 08:00:14;;;;;;;17.82;16.00;;;33.70;70.00;;;;;;1714851;83;21424;-76
2023/04/27 08:02:46;;;;;;;19.60;17.37;;;33.60;71.00;;;;;;1714167;83;21216;-74
2023/04/27 08:05:17;;;;;;;18.62;16.25;;;33.60;69.70;;;;;;1707739;82;21225;-74
2023/04/27 08:07:51;;;;;;;19.77;17.32;;;33.50;69.80;;;;;;1723522;83;21542;-72
2023/04/27 08:10:22;;;;;;;20.35;16.90;;;33.50;70.00;;;;;;1709239;82;21186;-74
2023/04/27 08:12:54;;;;;;;17.25;15.45;;;33.50;70.20;;;;;;1719943;83;21252;-75
2023/04/27 08:15:26;;;;;;;19.52;17.45;;;33.50;70.40;;;;;;1725753;82;21221;-75
2023/04/27 08:17:57;;;;;;;19.90;17.77;;;33.50;69.40;;;;;;1711552;83;21248;-75
2023/04/27 08:20:28;;;;;;;18.80;16.80;;;33.50;69.00;;;;;;1715776;82;21196;-76
2023/04/27 08:23:04;;;;;;;19.82;16.23;;;33.50;69.50;;;;;;1702305;83;21216;-76
2023/04/27 08:25:36;;;;;;;17.32;15.40;;;33.50;70.00;;;;;;1715100;82;21605;-76
2023/04/27 08:28:08;;;;;;;16.85;15.00;;;33.50;70.40;;;;;;1709819;83;21598;-76
2023/04/27 08:30:39;;;;;;;18.62;15.25;;;33.50;70.70;;;;;;1718100;83;21197;-73
2023/04/27 08:33:12;;;;;;;25.65;16.75;;;33.40;70.60;;;;;;1749112;81;21644;-75
2023/04/27 08:35:43;;;;;;;18.90;14.38;;;33.40;70.90;;;;;;1748525;81;21223;-74
2023/04/27 08:38:14;;;;;;;15.40;13.03;;;33.40;71.30;;;;;;1729612;82;21232;-76
2023/04/27 08:40:46;;;;;;;17.23;13.93;;;33.40;71.50;;;;;;1746668;81;21628;-75
2023/04/27 08:43:17;;;;;;;15.15;13.40;;;33.40;71.60;;;;;;1727754;82;21260;-74
2023/04/27 08:45:52;;;;;;;14.85;13.22;;;33.40;71.80;;;;;;1749436;81;21220;-75
2023/04/27 08:48:23;;;;;;;20.30;14.00;;;33.40;71.70;;;;;;1736357;81;21132;-75
2023/04/27 08:50:56;;;;;;;16.55;13.10;;;33.40;72.00;;;;;;1733341;82;21816;-75
2023/04/27 08:53:27;;;;;;;14.45;12.65;;;33.40;72.20;;;;;;1730715;82;21251;-76
2023/04/27 08:55:58;;;;;;;16.02;13.03;;;33.40;72.10;;;;;;1752912;81;21153;-76
2023/04/27 08:58:39;;;;;;;16.97;13.43;;;33.40;72.00;;;;;;1731222;83;21102;-74
2023/04/27 09:01:10;;;;;;;16.45;14.03;;;33.40;71.90;;;;;;1729163;82;21628;-76
2023/04/27 09:03:41;;;;;;;15.75;13.03;;;33.40;70.90;;;;;;1747239;81;21542;-73
2023/04/27 09:06:13;;;;;;;17.35;13.18;;;33.30;71.40;;;;;;1732096;83;21209;-74
2023/04/27 09:08:50;;;;;;;14.93;13.38;;;33.30;71.80;;;;;;1746112;82;21149;-75
2023/04/27 09:11:38;;;;;;;14.70;12.82;;;33.30;71.90;;;;;;1748956;81;21260;-75
2023/04/27 09:14:23;;;;;;;18.50;13.70;;;33.30;71.80;;;;;;1732181;83;21255;-76
2023/04/27 09:16:58;;;;;;;17.17;14.30;;;33.30;71.70;;;;;;1753001;81;21110;-75
2023/04/27 09:19:33;;;;;;;15.23;13.53;;;33.20;71.90;;;;;;1749635;81;21180;-83
2023/04/27 09:22:13;;;;;;;21.00;15.48;;;33.20;72.00;;;;;;1727492;82;21208;-82
2023/04/27 09:24:53;;;;;;;16.45;14.60;;;33.30;71.80;;;;;;1726085;82;21660;-81
2023/04/27 09:27:25;;;;;;;15.48;13.88;;;33.30;71.00;;;;;;1729192;81;21230;-83
2023/04/27 09:29:56;;;;;;;16.23;14.55;;;33.30;70.00;;;;;;1735394;82;21239;-83
2023/04/27 09:32:28;;;;;;;18.12;14.25;;;33.30;69.50;;;;;;1735245;81;21189;-81
2023/04/27 09:34:59;;;;;;;17.65;14.75;;;33.20;69.70;;;;;;1762596;80;21731;-80
2023/04/27 09:37:31;;;;;;;17.02;15.23;;;33.20;70.10;;;;;;1728222;82;21125;-82
2023/04/27 09:40:03;;;;;;;19.80;15.15;;;33.30;70.30;;;;;;1749222;81;21216;-82
2023/04/27 09:42:34;;;;;;;15.65;14.05;;;33.20;69.60;;;;;;1732278;83;21157;-81
2023/04/27 09:45:07;;;;;;;16.02;14.38;;;33.20;69.30;;;;;;1744484;81;21197;-81
2023/04/27 09:47:40;;;;;;;20.88;14.60;;;33.20;69.60;;;;;;1727024;82;21161;-84
2023/04/27 09:50:13;;;;;;;16.50;14.50;;;33.20;69.30;;;;;;1735712;81;21176;-80
2023/04/27 09:52:46;;;;;;;20.15;16.50;;;33.20;69.50;;;;;;1733924;81;21173;-80
2023/04/27 09:55:19;;;;;;;19.52;16.90;;;33.20;69.60;;;;;;1721233;82;21581;-81
2023/04/27 09:57:56;;;;;;;22.90;19.87;;;33.20;69.00;;;;;;1731651;82;21233;-81
2023/04/27 10:00:35;;;;;;;20.40;17.02;;;33.20;69.40;;;;;;1724945;82;21671;-81
2023/04/27 10:03:11;;;;;;;17.15;15.32;;;33.20;70.30;;;;;;1723722;82;21106;-82
2023/04/27 10:05:53;;;;;;;24.57;15.53;;;33.20;70.60;;;;;;1745325;80;21704;-81
2023/04/27 10:08:25;;;;;;;21.57;17.70;;;33.20;70.80;;;;;;1731339;83;21411;-81
2023/04/27 10:10:56;;;;;;;16.57;14.30;;;33.10;70.90;;;;;;1721714;82;21153;-82
2023/04/27 10:13:29;;;;;;;17.12;14.80;;;33.10;70.50;;;;;;1750646;80;21162;-82
2023/04/27 10:16:02;;;;;;;19.15;16.23;;;33.10;70.80;;;;;;1748236;81;21193;-82
2023/04/27 10:18:33;;;;;;;22.80;19.15;;;33.10;70.70;;;;;;1744798;82;21217;-82
2023/04/27 10:21:12;;;;;;;23.87;17.85;;;33.10;70.10;;;;;;1733366;82;21152;-82
2023/04/27 10:23:50;;;;;;;27.82;17.92;;;33.00;69.90;;;;;;1750270;80;21137;-82
2023/04/27 10:26:26;;;;;;;21.40;16.57;;;33.00;69.60;;;;;;1729577;83;21190;-81
2023/04/27 10:29:07;;;;;;;18.85;16.73;;;33.10;69.50;;;;;;1729901;82;21158;-81
2023/04/27 10:31:47;;;;;;;20.92;15.20;;;33.00;69.60;;;;;;1726324;82;21180;-80
2023/04/27 10:34:20;;;;;;;17.80;15.58;;;32.90;70.20;;;;;;1718731;82;21221;-79
2023/04/27 10:36:52;;;;;;;17.95;16.05;;;32.90;70.50;;;;;;1710724;82;21158;-81
2023/04/27 10:39:25;;;;;;;18.45;16.37;;;32.90;70.50;;;;;;1710773;82;21292;-82
2023/04/27 10:41:57;;;;;;;22.13;15.63;;;33.00;70.40;;;;;;1704122;83;21161;-80
2023/04/27 10:44:31;;;;;;;26.25;17.82;;;32.90;70.10;;;;;;1710709;83;21244;-82
2023/04/27 10:47:15;;;;;;;24.15;18.00;;;32.90;70.50;;;;;;1736879;81;21229;-82
2023/04/27 10:49:47;;;;;;;21.23;16.93;;;33.00;70.90;;;;;;1741646;81;21180;-82
2023/04/27 10:52:18;;;;;;;18.85;16.32;;;32.90;70.70;;;;;;1734145;82;21118;-82
2023/04/27 10:54:49;;;;;;;25.90;19.20;;;33.00;70.10;;;;;;1755430;81;21197;-81
2023/04/27 10:57:20;;;;;;;25.82;21.05;;;32.90;70.80;;;;;;1705510;82;21158;-81
2023/04/27 10:59:54;;;;;;;32.60;22.95;;;32.90;70.20;;;;;;1727086;83;21216;-81
2023/04/27 11:02:29;;;;;;;23.70;18.65;;;32.90;70.20;;;;;;1729287;81;21165;-82
2023/04/27 11:05:01;;;;;;;27.73;19.77;;;32.90;70.10;;;;;;1739410;81;21256;-82
2023/04/27 11:07:32;;;;;;;29.80;23.10;;;32.90;70.40;;;;;;1731180;81;21323;-81
2023/04/27 11:10:04;;;;;;;27.95;20.23;;;32.90;70.80;;;;;;1714836;82;21178;-83
2023/04/27 11:12:36;;;;;;;33.15;19.60;;;32.90;70.80;;;;;;1717440;83;21664;-82
2023/04/27 11:15:08;;;;;;;28.57;19.82;;;32.90;70.80;;;;;;1718316;82;21251;-82
2023/04/27 11:17:39;;;;;;;27.52;18.90;;;32.90;70.60;;;;;;1708986;83;21684;-82
2023/04/27 11:20:13;;;;;;;23.45;18.23;;;32.90;70.60;;;;;;1722076;83;21257;-82
2023/04/27 11:22:47;;;;;;;23.07;18.17;;;32.90;70.80;;;;;;1713691;82;21604;-80
2023/04/27 11:25:18;;;;;;;20.52;17.70;;;32.80;70.60;;;;;;1734028;83;21177;-82
2023/04/27 11:27:49;;;;;;;21.62;17.52;;;32.80;69.80;;;;;;1712077;83;21131;-82
2023/04/27 11:30:21;;;;;;;20.45;17.57;;;32.80;70.00;;;;;;1733684;83;21189;-81
2023/04/27 11:32:52;;;;;;;22.55;19.27;;;32.80;70.60;;;;;;1708159;82;21173;-81
2023/04/27 11:35:34;;;;;;;21.52;18.50;;;32.80;70.90;;;;;;1713378;83;21965;-81
2023/04/27 11:38:05;;;;;;;24.70;18.42;;;32.70;70.90;;;;;;1716935;83;21260;-80
2023/04/27 11:40:39;;;;;;;24.57;17.82;;;32.80;71.00;;;;;;1716476;83;21261;-81
2023/04/27 11:43:14;;;;;;;19.90;17.80;;;32.70;71.00;;;;;;1724961;80;21142;-84
2023/04/27 11:45:46;;;;;;;20.07;18.07;;;32.70;70.40;;;;;;1728251;80;21138;-84
2023/04/27 11:48:17;;;;;;;21.23;18.17;;;32.70;70.20;;;;;;1717367;82;21582;-82
2023/04/27 11:50:48;;;;;;;25.25;18.70;;;32.60;70.10;;;;;;1732089;83;21508;-80
2023/04/27 11:53:38;;;;;;;25.75;19.40;;;32.60;70.20;;;;;;1732982;81;21214;-81
2023/04/27 11:56:10;;;;;;;25.68;18.45;;;32.60;70.10;;;;;;1723637;83;21153;-80
2023/04/27 11:58:42;;;;;;;24.90;18.05;;;32.60;70.00;;;;;;1730884;83;21149;-81
2023/04/27 12:01:16;;;;;;;28.52;19.20;;;32.60;70.40;;;;;;1726879;81;21233;-80
2023/04/27 12:03:48;;;;;;;25.90;19.85;;;32.60;70.60;;;;;;1716884;83;22184;-81
2023/04/27 12:06:27;;;;;;;22.95;18.70;;;32.60;71.10;;;;;;1713015;84;21166;-81
2023/04/27 12:09:00;;;;;;;24.67;19.85;;;32.60;71.50;;;;;;1718425;83;21219;-82
2023/04/27 12:11:31;;;;;;;25.08;20.52;;;32.60;71.90;;;;;;1732701;81;21173;-81
2023/04/27 12:14:06;;;;;;;25.55;19.12;;;32.60;72.20;;;;;;1688872;83;21563;-81
2023/04/27 12:16:37;;;;;;;27.65;19.77;;;32.60;72.60;;;;;;1734434;81;21665;-81
2023/04/27 12:19:09;;;;;;;29.65;19.77;;;32.50;73.00;;;;;;1732796;81;21176;-80
2023/04/27 12:21:41;;;;;;;30.43;19.12;;;32.50;73.40;;;;;;1710897;83;21178;-79
2023/04/27 12:24:12;;;;;;;29.02;18.65;;;32.50;73.90;;;;;;1739163;81;21130;-82
2023/04/27 12:26:45;;;;;;;23.90;18.87;;;32.40;74.40;;;;;;1731995;83;21118;-82
2023/04/27 12:29:16;;;;;;;31.40;19.27;;;32.50;74.90;;;;;;1727370;83;21594;-77
2023/04/27 12:31:48;;;;;;;23.20;18.50;;;32.40;74.90;;;;;;1690069;83;21162;-76
2023/04/27 12:34:20;;;;;;;26.48;17.65;;;32.40;75.00;;;;;;1745736;81;21154;-75
2023/04/27 12:36:52;;;;;;;23.47;18.92;;;32.40;75.10;;;;;;1734276;81;21585;-76
2023/04/27 12:39:26;;;;;;;22.02;19.37;;;32.40;75.20;;;;;;1737133;81;21157;-74
2023/04/27 12:41:58;;;;;;;25.35;18.35;;;32.40;75.20;;;;;;1728772;83;21205;-76
2023/04/27 12:44:29;;;;;;;20.88;18.48;;;32.40;75.40;;;;;;1733343;81;21185;-76
2023/04/27 12:47:00;;;;;;;48.35;24.15;;;32.40;75.80;;;;;;1739529;81;21213;-74
2023/04/27 12:49:31;;;;;;;31.65;23.00;;;32.30;78.30;;;;;;1715277;83;22373;-75
2023/04/27 12:52:02;;;;;;;33.90;22.55;;;32.30;79.70;;;;;;1737540;81;21181;-83
2023/04/27 12:54:33;;;;;;;31.07;21.60;;;32.20;80.10;;;;;;1730989;82;21150;-82
2023/04/27 12:57:07;;;;;;;26.33;19.80;;;31.90;80.30;;;;;;1729925;83;21168;-83
2023/04/27 12:59:38;;;;;;;30.30;19.92;;;31.70;80.30;;;;;;1709931;83;21149;-82
2023/04/27 13:02:11;;;;;;;27.37;19.45;;;31.70;80.80;;;;;;1739369;82;21165;-81